Airfield :
LOGIN :

Register | Disclaimer

   EN    FR    IT 

 










Legend :    VFR   Marginal VFR   IFR   Intensive IFR   Very Intensive IFR
Visi :
Ceiling :
>= 8 km
>= 3000ft
5 to 8 km
1000 to 3000 ft
1500m to 5 km
500 to 1000 ft
800 to 1500m
200 to 500 ft
< 800m
< 200 ft
Symbols :   Thunderstorms  Fog  Heavy snow  Heavy precipitations  Wind > 20 kt
SIGMETs :     Misc.  Thunderstorms  Icing  Turbulence  Mountain Waves  Volcanic Ashes







- Airport Elevation : 90 ft
- IATA code : NTE
- Download approach charts


LFRS - Nantes

CURRENT METAR :
  • 192000Z AUTO 20015KT 4600 -RA BR BKN007/// OVC012/// ///TCU 14/14 Q1006 TEMPO 22018G35KT RA BKN004 BKN025

EXPIRED METARs :
  • 191930Z AUTO 20016KT 5000 RA BR BKN008/// BKN013/// OVC019/// ///TCU 15/14 Q1006 TEMPO 22018G35KT BKN004 BKN025
  • 191900Z AUTO 20017G31KT 5000 RA BR BKN019/// BKN026/// OVC032/// ///TCU 15/14 Q1006 TEMPO BKN004 BKN025
  • 191830Z AUTO 19014KT 8000 -RA SCT024/// BKN037/// BKN052/// ///TCU 16/14 Q1006 TEMPO 22018G30KT BECMG 4000 -RA BKN010 OVC030
  • 191800Z AUTO 18012KT 9999 -RA FEW023/// SCT070/// OVC084/// ///TCU 16/14 Q1006 BECMG 20015G25KT 4000 -RA BKN010 OVC030
  • 191730Z AUTO 19013KT 9999 FEW024/// BKN098/// OVC200/// ///TCU 17/13 Q1006 BECMG 20015G25KT 4000 -RA BKN010 OVC030

TAF AMD TAF LFRS
Valid from the 19 at 20:00 until the 21 at 00:00 UTC


192013Z 1920/2024 20015G25KT 8000 -RA BKN040
TEMPO 1920/1922 22018G35KT 3000 RA BKN006 BKN025
BECMG 1921/1923 27010KT
BECMG 2010/2012 21010KT
BECMG 2018/2021 20015G25KT
ATIS : +33 2 40 05 12 74
No reported NOTAMs for that airfield.
3 SIGMETs reported for the Brest FIR (LFRR) :
 
Severe turbulence
LFRR SIGMET 8 VALID 192000/192300 LFPW
LFRR BREST FIR/UIR SEV TURB FCST WI N4930 W00115 - N4700 W00045 - N4630 W00245 - N4900 W00545 FL180/310 MOV NE 30KT NC=
Severe turbulence
LFRR SIGMET 7 VALID 191900/192300 LFPW
LFRR BREST FIR/UIR SEV TURB OBS WI N4915 W00700 - N5000 W00200 - N5000 W00015 - N4815 W00015 - N4630 W00215 - N4715 W00330 - N4830 W00315 - N4845 W00600 SFC/FL060 MOV NE 30KT NC=
Severe turbulence
LFRR SIGMET 6 VALID 191800/192200 LFPW
LFRR BREST FIR/UIR SEV TURB FCST WI N4545 W00145 - N4330 W00145 - N4400 W00330 - N4630 W00430 - N4645 W00215 FL220/310 MOV E 30KT WKN=



MET'MAP, your aeronautical weather chart ! - Copyright ORBIFLY December 2007 - Disclaimer

ORBIFLY MET'MAP TEAM :

Programming & Development : Alexandra Zaïnal
Concept & Development : Baudouin d'Aumeries
Co-Development & Prog : Marc-Olivier Méhu
Technical & hardware support : Manuel Goepfert

Contact : metmap@orbifly.com




SOURCES & CREDITS :

   NOAA